Time;durP1;ratioP1;P1;durP2;ratioP2;P2;SDS_P1;SDS_P2;PMS_P1;PMS_P2;Temp;Humidity;BMP_temperature;BMP_pressure;BME280_temperature;BME280_humidity;BME280_pressure;Samples;Min_cycle;Max_cycle;Signal;HPM_P1;HPM_P2
2022/11/25 00:01:58;;;;;;;;;;;;;;;;;;5049611;28;20359;-66
2022/11/25 00:04:24;;;;;;;;;;;;;;;;;;5049675;28;19966;-66
2022/11/25 00:06:50;;;;;;;;;;;;;;;;;;5049853;28;20378;-66
2022/11/25 00:09:16;;;;;;;;;;;;;;;;;;5064484;28;20439;-66
2022/11/25 00:11:42;;;;;;;;;;;;;;;;;;5069575;28;20396;-66
2022/11/25 00:14:08;;;;;;;;;;;;;;;;;;5069948;28;20014;-66
2022/11/25 00:16:34;;;;;;;;;;;;;;;;;;5069549;28;19946;-66
2022/11/25 00:18:59;;;;;;;;;;;;;;;;;;5069399;28;19974;-66
2022/11/25 00:21:25;;;;;;;;;;;;;;;;;;5068633;28;19995;-66
2022/11/25 00:23:52;;;;;;;;;;;;;;;;;;5064813;28;19924;-66
2022/11/25 00:26:18;;;;;;;;;;;;;;;;;;5052014;28;20183;-66
2022/11/25 00:28:43;;;;;;;;;;;;;;;;;;5053066;28;20413;-65
2022/11/25 00:31:09;;;;;;;;;;;;;;;;;;5053498;28;19927;-66
2022/11/25 00:33:35;;;;;;;;;;;;;;;;;;5052611;28;20011;-66
2022/11/25 00:36:01;;;;;;;;;;;;;;;;;;5070126;28;20003;-65
2022/11/25 00:38:27;;;;;;;;;;;;;;;;;;5072577;28;20003;-66
2022/11/25 00:46:22;;;;;;;;;;;;;;;;;;5071399;28;19927;-66
2022/11/25 00:48:48;;;;;;;;;;;;;;;;;;5070254;28;19920;-66
2022/11/25 00:51:14;;;;;;;;;;;;;;;;;;5051102;28;19974;-66
2022/11/25 00:53:40;;;;;;;;;;;;;;;;;;5052515;28;19921;-66
2022/11/25 00:56:12;;;;;;;;;;;;;;;;;;5052776;28;19932;-65
2022/11/25 00:58:38;;;;;;;;;;;;;;;;;;5052730;28;19925;-66
2022/11/25 01:01:04;;;;;;;;;;;;;;;;;;5052335;28;19932;-65
2022/11/25 01:03:30;;;;;;;;;;;;;;;;;;5052190;28;19927;-66
2022/11/25 01:05:56;;;;;;;;;;;;;;;;;;5051030;28;19951;-66
2022/11/25 01:08:22;;;;;;;;;;;;;;;;;;5052022;28;19967;-66
2022/11/25 01:10:48;;;;;;;;;;;;;;;;;;5052338;28;19921;-66
2022/11/25 01:13:14;;;;;;;;;;;;;;;;;;5056502;28;19946;-66
2022/11/25 01:15:40;;;;;;;;;;;;;;;;;;5065992;28;20352;-66
2022/11/25 01:18:05;;;;;;;;;;;;;;;;;;5070920;28;20382;-66
2022/11/25 01:20:31;;;;;;;;;;;;;;;;;;5072067;28;19920;-65
2022/11/25 01:22:57;;;;;;;;;;;;;;;;;;5071980;28;19928;-66
2022/11/25 01:25:23;;;;;;;;;;;;;;;;;;5069353;28;20345;-66
2022/11/25 01:27:49;;;;;;;;;;;;;;;;;;5051569;28;20429;-66
2022/11/25 01:30:15;;;;;;;;;;;;;;;;;;5050675;28;19954;-66
2022/11/25 01:32:41;;;;;;;;;;;;;;;;;;5051485;28;19974;-66
2022/11/25 01:35:07;;;;;;;;;;;;;;;;;;5051723;28;20382;-66
2022/11/25 01:37:33;;;;;;;;;;;;;;;;;;5050400;28;19928;-66
2022/11/25 01:39:59;;;;;;;;;;;;;;;;;;5061787;28;19920;-66
2022/11/25 01:42:25;;;;;;;;;;;;;;;;;;5070356;28;19946;-66
2022/11/25 01:44:50;;;;;;;;;;;;;;;;;;5053390;28;19921;-67
2022/11/25 01:47:16;;;;;;;;;;;;;;;;;;5071379;28;19974;-66
2022/11/25 01:49:42;;;;;;;;;;;;;;;;;;5071560;28;20337;-67
2022/11/25 01:52:09;;;;;;;;;;;;;;;;;;5050661;28;19927;-66
2022/11/25 01:54:34;;;;;;;;;;;;;;;;;;5051011;28;19996;-66
2022/11/25 01:57:00;;;;;;;;;;;;;;;;;;5050015;28;19921;-66
2022/11/25 01:59:26;;;;;;;;;;;;;;;;;;5050461;28;19928;-66
2022/11/25 02:01:52;;;;;;;;;;;;;;;;;;5050886;28;20434;-66
2022/11/25 02:04:18;;;;;;;;;;;;;;;;;;5051269;28;19921;-67
2022/11/25 02:06:44;;;;;;;;;;;;;;;;;;5050116;28;19960;-66
2022/11/25 02:09:10;;;;;;;;;;;;;;;;;;5058581;28;19920;-67
2022/11/25 02:11:36;;;;;;;;;;;;;;;;;;5059951;28;20290;-66
2022/11/25 02:14:02;;;;;;;;;;;;;;;;;;5050717;28;19966;-66
2022/11/25 02:16:28;;;;;;;;;;;;;;;;;;5056285;28;20385;-67
2022/11/25 02:18:54;;;;;;;;;;;;;;;;;;5070796;28;19920;-66
2022/11/25 02:21:20;;;;;;;;;;;;;;;;;;5070329;28;19920;-67
2022/11/25 02:23:46;;;;;;;;;;;;;;;;;;5063875;28;20271;-66
2022/11/25 02:26:11;;;;;;;;;;;;;;;;;;5048837;28;19943;-67
2022/11/25 02:28:37;;;;;;;;;;;;;;;;;;5049017;28;19921;-66
2022/11/25 02:31:04;;;;;;;;;;;;;;;;;;5050227;28;19921;-67
2022/11/25 02:33:30;;;;;;;;;;;;;;;;;;5049658;28;20382;-66
2022/11/25 02:35:56;;;;;;;;;;;;;;;;;;5049123;28;19921;-67
2022/11/25 02:38:21;;;;;;;;;;;;;;;;;;5067303;28;19952;-66
2022/11/25 02:40:47;;;;;;;;;;;;;;;;;;5067627;28;19924;-66
2022/11/25 02:43:13;;;;;;;;;;;;;;;;;;5067510;28;20259;-67
2022/11/25 02:45:39;;;;;;;;;;;;;;;;;;5071002;28;20332;-67
2022/11/25 02:48:05;;;;;;;;;;;;;;;;;;5070120;28;19924;-67
2022/11/25 02:50:31;;;;;;;;;;;;;;;;;;5066799;28;19966;-66
2022/11/25 02:52:57;;;;;;;;;;;;;;;;;;5070150;28;19994;-66
2022/11/25 02:55:23;;;;;;;;;;;;;;;;;;5069792;28;19955;-67
2022/11/25 02:57:49;;;;;;;;;;;;;;;;;;5070497;28;20747;-67
2022/11/25 03:00:15;;;;;;;;;;;;;;;;;;5069098;28;19924;-67
2022/11/25 03:02:41;;;;;;;;;;;;;;;;;;5070309;28;19943;-67
2022/11/25 03:05:07;;;;;;;;;;;;;;;;;;5059379;28;20349;-66
2022/11/25 03:07:33;;;;;;;;;;;;;;;;;;5051391;28;19964;-67
2022/11/25 03:09:59;;;;;;;;;;;;;;;;;;5060398;28;19920;-66
2022/11/25 03:12:25;;;;;;;;;;;;;;;;;;5068919;28;20464;-66
2022/11/25 03:14:51;;;;;;;;;;;;;;;;;;5070175;28;20449;-66
2022/11/25 03:17:17;;;;;;;;;;;;;;;;;;5069841;28;20019;-66
2022/11/25 03:19:43;;;;;;;;;;;;;;;;;;5051578;28;19920;-66
2022/11/25 03:22:09;;;;;;;;;;;;;;;;;;5069834;28;20390;-66
2022/11/25 03:24:35;;;;;;;;;;;;;;;;;;5068905;28;19968;-66
2022/11/25 03:27:01;;;;;;;;;;;;;;;;;;5068700;28;20481;-66
2022/11/25 03:29:27;;;;;;;;;;;;;;;;;;5069627;28;20386;-66
2022/11/25 03:31:53;;;;;;;;;;;;;;;;;;5049645;28;19950;-66
2022/11/25 03:34:19;;;;;;;;;;;;;;;;;;5049485;28;20703;-66
2022/11/25 03:36:45;;;;;;;;;;;;;;;;;;5049589;28;20008;-66
2022/11/25 03:39:11;;;;;;;;;;;;;;;;;;5049914;28;20007;-66
2022/11/25 03:41:37;;;;;;;;;;;;;;;;;;5048495;28;20437;-67
2022/11/25 03:44:03;;;;;;;;;;;;;;;;;;5048968;28;19964;-67
2022/11/25 03:46:29;;;;;;;;;;;;;;;;;;5048304;28;19921;-66
2022/11/25 03:48:55;;;;;;;;;;;;;;;;;;5049336;28;19920;-66
2022/11/25 03:51:21;;;;;;;;;;;;;;;;;;5049874;28;20304;-67
2022/11/25 03:53:47;;;;;;;;;;;;;;;;;;5049655;28;19921;-67
2022/11/25 03:56:13;;;;;;;;;;;;;;;;;;5050902;28;19968;-67
2022/11/25 03:58:39;;;;;;;;;;;;;;;;;;5055265;28;19982;-67
2022/11/25 04:01:05;;;;;;;;;;;;;;;;;;5068903;28;20314;-67
2022/11/25 04:03:31;;;;;;;;;;;;;;;;;;5073248;28;19920;-67
2022/11/25 04:05:57;;;;;;;;;;;;;;;;;;5073274;28;20011;-67
2022/11/25 04:08:23;;;;;;;;;;;;;;;;;;5073228;28;19964;-67
2022/11/25 04:10:49;;;;;;;;;;;;;;;;;;5052192;28;19970;-67
2022/11/25 04:13:15;;;;;;;;;;;;;;;;;;5051927;28;20378;-66
2022/11/25 04:15:41;;;;;;;;;;;;;;;;;;5052035;28;19928;-67
2022/11/25 04:18:07;;;;;;;;;;;;;;;;;;5053360;28;19921;-66
2022/11/25 04:20:32;;;;;;;;;;;;;;;;;;5052011;28;20019;-67
2022/11/25 04:22:58;;;;;;;;;;;;;;;;;;5052722;28;20039;-66
2022/11/25 04:25:24;;;;;;;;;;;;;;;;;;5059554;28;19955;-66
2022/11/25 04:27:50;;;;;;;;;;;;;;;;;;5054993;28;20348;-67
2022/11/25 04:30:16;;;;;;;;;;;;;;;;;;5052756;28;20013;-66
2022/11/25 04:32:42;;;;;;;;;;;;;;;;;;5052587;28;20368;-66
2022/11/25 04:35:08;;;;;;;;;;;;;;;;;;5052476;28;19967;-66
2022/11/25 04:37:34;;;;;;;;;;;;;;;;;;5052694;28;19924;-66
2022/11/25 04:40:00;;;;;;;;;;;;;;;;;;5067550;28;19967;-67
2022/11/25 04:42:33;;;;;;;;;;;;;;;;;;5072708;28;19974;-67
2022/11/25 04:44:59;;;;;;;;;;;;;;;;;;5071506;28;19920;-66
2022/11/25 04:47:25;;;;;;;;;;;;;;;;;;5072227;28;20408;-66
2022/11/25 04:49:51;;;;;;;;;;;;;;;;;;5066662;28;19927;-67
2022/11/25 04:52:17;;;;;;;;;;;;;;;;;;5052616;28;19975;-67
2022/11/25 04:54:43;;;;;;;;;;;;;;;;;;5052174;28;19921;-67
2022/11/25 04:57:09;;;;;;;;;;;;;;;;;;5052563;28;19964;-66
2022/11/25 04:59:38;;;;;;;;;;;;;;;;;;5051989;28;19920;-67
2022/11/25 05:02:04;;;;;;;;;;;;;;;;;;5052424;28;20341;-67
2022/11/25 05:04:30;;;;;;;;;;;;;;;;;;5054702;28;20432;-67
2022/11/25 05:06:56;;;;;;;;;;;;;;;;;;5069283;28;19964;-67
2022/11/25 05:09:22;;;;;;;;;;;;;;;;;;5050689;28;19974;-66
2022/11/25 05:11:48;;;;;;;;;;;;;;;;;;5051337;28;20414;-66
2022/11/25 05:14:14;;;;;;;;;;;;;;;;;;5051874;28;20010;-66
2022/11/25 05:16:40;;;;;;;;;;;;;;;;;;5051011;28;19983;-66
2022/11/25 05:19:06;;;;;;;;;;;;;;;;;;5052365;28;20410;-66
2022/11/25 05:21:32;;;;;;;;;;;;;;;;;;5071646;28;19921;-66
2022/11/25 05:23:58;;;;;;;;;;;;;;;;;;5071431;28;20363;-66
2022/11/25 05:26:24;;;;;;;;;;;;;;;;;;5071747;28;19978;-66
2022/11/25 05:28:50;;;;;;;;;;;;;;;;;;5071856;28;19928;-67
2022/11/25 05:31:15;;;;;;;;;;;;;;;;;;5059742;28;20421;-67
2022/11/25 05:33:41;;;;;;;;;;;;;;;;;;5051124;28;19927;-66
2022/11/25 05:36:07;;;;;;;;;;;;;;;;;;5051605;28;19925;-66
2022/11/25 05:38:33;;;;;;;;;;;;;;;;;;5051783;28;19921;-67
2022/11/25 05:40:59;;;;;;;;;;;;;;;;;;5051675;28;20413;-67
2022/11/25 05:43:25;;;;;;;;;;;;;;;;;;5051543;28;19920;-67
2022/11/25 05:45:51;;;;;;;;;;;;;;;;;;5061718;28;20361;-67
2022/11/25 05:48:17;;;;;;;;;;;;;;;;;;5055877;28;19924;-66
2022/11/25 05:50:43;;;;;;;;;;;;;;;;;;5069660;28;19929;-68
2022/11/25 05:53:10;;;;;;;;;;;;;;;;;;5070645;28;19969;-68
2022/11/25 05:55:36;;;;;;;;;;;;;;;;;;5068067;28;20051;-68
2022/11/25 05:58:03;;;;;;;;;;;;;;;;;;5068731;28;20347;-67
2022/11/25 06:00:29;;;;;;;;;;;;;;;;;;5066739;28;20626;-68
2022/11/25 06:02:55;;;;;;;;;;;;;;;;;;5051686;28;20379;-68
2022/11/25 06:05:21;;;;;;;;;;;;;;;;;;5048539;28;19982;-67
2022/11/25 06:07:47;;;;;;;;;;;;;;;;;;5048681;28;20378;-67
2022/11/25 06:10:13;;;;;;;;;;;;;;;;;;5050451;28;20302;-67
2022/11/25 06:12:39;;;;;;;;;;;;;;;;;;5050146;28;19928;-67
2022/11/25 06:15:04;;;;;;;;;;;;;;;;;;5032391;28;19921;-67
2022/11/25 06:17:30;;;;;;;;;;;;;;;;;;5048931;28;19920;-67
2022/11/25 06:19:56;;;;;;;;;;;;;;;;;;5050268;28;19921;-67
2022/11/25 06:22:22;;;;;;;;;;;;;;;;;;5049875;28;20234;-67
2022/11/25 06:24:48;;;;;;;;;;;;;;;;;;5050362;28;20430;-67
2022/11/25 06:27:14;;;;;;;;;;;;;;;;;;5050384;28;19943;-67
2022/11/25 06:29:40;;;;;;;;;;;;;;;;;;5056972;28;20367;-67
2022/11/25 06:32:06;;;;;;;;;;;;;;;;;;5050987;28;19927;-67
2022/11/25 06:34:32;;;;;;;;;;;;;;;;;;5049901;28;19921;-67
2022/11/25 06:36:58;;;;;;;;;;;;;;;;;;5050232;28;20371;-67
2022/11/25 06:39:24;;;;;;;;;;;;;;;;;;5049608;28;20017;-67
2022/11/25 06:41:50;;;;;;;;;;;;;;;;;;5065534;28;19955;-67
2022/11/25 06:44:16;;;;;;;;;;;;;;;;;;5032013;28;19921;-67
2022/11/25 06:46:42;;;;;;;;;;;;;;;;;;5049549;28;19931;-66
2022/11/25 06:49:07;;;;;;;;;;;;;;;;;;5049894;28;19921;-67
2022/11/25 06:51:33;;;;;;;;;;;;;;;;;;5049270;28;19920;-66
2022/11/25 06:53:59;;;;;;;;;;;;;;;;;;5049846;28;20373;-67
2022/11/25 06:56:25;;;;;;;;;;;;;;;;;;5066078;28;19927;-66
2022/11/25 06:58:51;;;;;;;;;;;;;;;;;;5055118;28;20280;-66
2022/11/25 07:01:18;;;;;;;;;;;;;;;;;;5066367;28;19986;-66
2022/11/25 07:03:43;;;;;;;;;;;;;;;;;;5058230;28;20351;-67
2022/11/25 07:06:09;;;;;;;;;;;;;;;;;;5049694;28;20042;-67
2022/11/25 07:08:35;;;;;;;;;;;;;;;;;;5049620;28;19979;-66
2022/11/25 07:11:01;;;;;;;;;;;;;;;;;;5048275;28;20341;-67
2022/11/25 07:13:27;;;;;;;;;;;;;;;;;;5047505;28;19925;-67
2022/11/25 07:15:53;;;;;;;;;;;;;;;;;;5049403;28;19935;-67
2022/11/25 07:18:19;;;;;;;;;;;;;;;;;;5065462;28;19921;-66
2022/11/25 07:20:45;;;;;;;;;;;;;;;;;;5063171;28;20371;-67
2022/11/25 07:23:11;;;;;;;;;;;;;;;;;;5069594;28;19927;-67
2022/11/25 07:25:37;;;;;;;;;;;;;;;;;;5069218;28;19921;-66
2022/11/25 07:28:03;;;;;;;;;;;;;;;;;;5067492;28;19928;-67
2022/11/25 07:30:29;;;;;;;;;;;;;;;;;;5070256;28;19920;-67
2022/11/25 07:32:55;;;;;;;;;;;;;;;;;;5070899;28;20085;-66
2022/11/25 07:35:21;;;;;;;;;;;;;;;;;;5073184;28;19921;-66
2022/11/25 07:37:47;;;;;;;;;;;;;;;;;;5061485;28;19951;-66
2022/11/25 07:40:12;;;;;;;;;;;;;;;;;;5061133;28;20209;-66
2022/11/25 07:42:38;;;;;;;;;;;;;;;;;;5053000;28;19920;-66
2022/11/25 07:45:04;;;;;;;;;;;;;;;;;;5068220;28;19925;-66
2022/11/25 07:47:30;;;;;;;;;;;;;;;;;;5052935;28;19944;-67
2022/11/25 07:49:56;;;;;;;;;;;;;;;;;;5072440;28;20298;-66
2022/11/25 07:52:22;;;;;;;;;;;;;;;;;;5071755;28;20298;-67
2022/11/25 07:54:48;;;;;;;;;;;;;;;;;;5067104;28;19921;-67
2022/11/25 07:57:14;;;;;;;;;;;;;;;;;;5062806;28;19928;-67
2022/11/25 07:59:40;;;;;;;;;;;;;;;;;;5066506;28;19920;-67
2022/11/25 08:02:06;;;;;;;;;;;;;;;;;;5071427;28;19966;-67
2022/11/25 08:04:32;;;;;;;;;;;;;;;;;;5072771;28;19920;-67
2022/11/25 08:06:58;;;;;;;;;;;;;;;;;;5071133;28;19932;-67
2022/11/25 08:09:24;;;;;;;;;;;;;;;;;;5065180;28;20022;-67
2022/11/25 08:11:50;;;;;;;;;;;;;;;;;;5055082;28;19974;-67
2022/11/25 08:14:16;;;;;;;;;;;;;;;;;;5053997;28;19929;-66
2022/11/25 08:16:42;;;;;;;;;;;;;;;;;;5070523;28;19989;-67
2022/11/25 08:19:08;;;;;;;;;;;;;;;;;;5059217;28;19967;-66
2022/11/25 08:21:34;;;;;;;;;;;;;;;;;;5064480;28;20003;-66
2022/11/25 08:24:01;;;;;;;;;;;;;;;;;;5071293;28;20343;-67
2022/11/25 08:26:31;;;;;;;;;;;;;;;;;;5060354;28;19924;-67
2022/11/25 08:28:57;;;;;;;;;;;;;;;;;;5043089;28;19921;-67
2022/11/25 08:31:23;;;;;;;;;;;;;;;;;;5054687;28;20023;-67
2022/11/25 08:33:49;;;;;;;;;;;;;;;;;;5070898;28;20042;-66
2022/11/25 08:36:15;;;;;;;;;;;;;;;;;;5063163;28;20421;-67
2022/11/25 08:38:41;;;;;;;;;;;;;;;;;;5057077;28;19963;-67
2022/11/25 08:41:07;;;;;;;;;;;;;;;;;;5049675;28;20508;-67
2022/11/25 08:43:33;;;;;;;;;;;;;;;;;;5049975;28;20003;-66
2022/11/25 08:45:58;;;;;;;;;;;;;;;;;;5050438;28;20467;-67
2022/11/25 08:48:24;;;;;;;;;;;;;;;;;;5049772;28;19925;-67
2022/11/25 08:50:50;;;;;;;;;;;;;;;;;;5050268;28;19925;-67
2022/11/25 08:53:16;;;;;;;;;;;;;;;;;;5050713;28;19920;-66
2022/11/25 08:55:42;;;;;;;;;;;;;;;;;;5049414;28;19924;-66
2022/11/25 08:58:10;;;;;;;;;;;;;;;;;;5050022;28;19924;-67
2022/11/25 09:00:36;;;;;;;;;;;;;;;;;;5049482;28;19925;-66
2022/11/25 09:03:01;;;;;;;;;;;;;;;;;;5049723;28;20462;-67
2022/11/25 09:05:34;;;;;;;;;;;;;;;;;;5050353;28;20038;-66
2022/11/25 09:08:00;;;;;;;;;;;;;;;;;;5048717;28;19955;-66
2022/11/25 09:10:26;;;;;;;;;;;;;;;;;;5050303;28;20421;-67
2022/11/25 09:12:52;;;;;;;;;;;;;;;;;;5050210;28;19964;-67
2022/11/25 09:15:18;;;;;;;;;;;;;;;;;;5050153;28;20002;-66
2022/11/25 09:17:44;;;;;;;;;;;;;;;;;;5048283;28;20378;-66
2022/11/25 09:20:10;;;;;;;;;;;;;;;;;;5050235;28;19983;-66
2022/11/25 09:22:36;;;;;;;;;;;;;;;;;;5050263;28;20024;-67
2022/11/25 09:25:02;;;;;;;;;;;;;;;;;;5049692;28;19977;-67
2022/11/25 09:27:28;;;;;;;;;;;;;;;;;;5049992;28;19978;-66
2022/11/25 09:29:54;;;;;;;;;;;;;;;;;;5048869;28;19973;-66
2022/11/25 09:32:20;;;;;;;;;;;;;;;;;;5049302;28;19921;-67
2022/11/25 09:34:46;;;;;;;;;;;;;;;;;;5049926;28;19987;-66
2022/11/25 09:37:12;;;;;;;;;;;;;;;;;;5031901;28;19968;-66
2022/11/25 09:39:38;;;;;;;;;;;;;;;;;;5048658;28;19920;-66
2022/11/25 09:47:33;;;;;;;;;;;;;;;;;;5049748;28;20051;-66
2022/11/25 09:49:59;;;;;;;;;;;;;;;;;;5049562;28;20484;-67
2022/11/25 09:52:25;;;;;;;;;;;;;;;;;;5047286;28;19984;-66
2022/11/25 09:54:51;;;;;;;;;;;;;;;;;;5047826;28;20073;-66
2022/11/25 09:57:17;;;;;;;;;;;;;;;;;;5048836;28;20375;-66
2022/11/25 09:59:43;;;;;;;;;;;;;;;;;;5049394;28;19974;-67
2022/11/25 10:02:10;;;;;;;;;;;;;;;;;;5049618;28;19924;-67
2022/11/25 10:04:36;;;;;;;;;;;;;;;;;;5049384;28;20469;-66
2022/11/25 10:07:02;;;;;;;;;;;;;;;;;;5048775;28;19921;-67
2022/11/25 10:09:28;;;;;;;;;;;;;;;;;;5049742;28;19935;-67
2022/11/25 10:11:54;;;;;;;;;;;;;;;;;;5049474;28;19966;-66
2022/11/25 10:14:19;;;;;;;;;;;;;;;;;;5049033;28;19925;-66
2022/11/25 10:16:45;;;;;;;;;;;;;;;;;;5048901;28;20446;-66
2022/11/25 10:19:11;;;;;;;;;;;;;;;;;;5049630;28;20260;-66
2022/11/25 10:21:37;;;;;;;;;;;;;;;;;;5049199;28;20379;-66
2022/11/25 10:24:03;;;;;;;;;;;;;;;;;;5031209;28;19975;-66
2022/11/25 10:26:29;;;;;;;;;;;;;;;;;;5047494;28;19927;-66
2022/11/25 10:28:55;;;;;;;;;;;;;;;;;;5048984;28;20280;-66
2022/11/25 10:31:21;;;;;;;;;;;;;;;;;;5048714;28;19921;-67
2022/11/25 10:33:47;;;;;;;;;;;;;;;;;;5047428;28;19921;-66
2022/11/25 10:36:13;;;;;;;;;;;;;;;;;;5049470;28;19921;-66
2022/11/25 10:38:40;;;;;;;;;;;;;;;;;;5048751;28;20023;-66
2022/11/25 10:41:06;;;;;;;;;;;;;;;;;;5047006;28;19921;-66
2022/11/25 10:43:32;;;;;;;;;;;;;;;;;;5048871;28;19920;-66
2022/11/25 10:45:58;;;;;;;;;;;;;;;;;;5048728;28;20362;-66
2022/11/25 10:48:24;;;;;;;;;;;;;;;;;;5030755;28;19991;-66
2022/11/25 10:50:50;;;;;;;;;;;;;;;;;;5048616;28;19984;-66
2022/11/25 10:53:16;;;;;;;;;;;;;;;;;;5046939;28;19968;-66
2022/11/25 10:55:42;;;;;;;;;;;;;;;;;;5048920;28;19990;-66
2022/11/25 10:58:08;;;;;;;;;;;;;;;;;;5048741;28;19960;-66
2022/11/25 11:00:34;;;;;;;;;;;;;;;;;;5048413;28;19921;-66
2022/11/25 11:03:00;;;;;;;;;;;;;;;;;;5048602;28;19988;-66
2022/11/25 11:05:28;;;;;;;;;;;;;;;;;;5047956;28;19928;-66
2022/11/25 11:07:54;;;;;;;;;;;;;;;;;;5048429;28;19920;-65
2022/11/25 11:10:20;;;;;;;;;;;;;;;;;;5046545;28;19920;-66
2022/11/25 11:12:46;;;;;;;;;;;;;;;;;;5048157;28;19920;-66
2022/11/25 11:15:13;;;;;;;;;;;;;;;;;;5048042;28;19920;-65
2022/11/25 11:17:39;;;;;;;;;;;;;;;;;;5047373;28;19972;-66
2022/11/25 11:20:05;;;;;;;;;;;;;;;;;;5048043;28;19960;-65
2022/11/25 11:22:31;;;;;;;;;;;;;;;;;;5045097;28;20017;-66
2022/11/25 11:24:57;;;;;;;;;;;;;;;;;;5048271;28;19920;-66
2022/11/25 11:27:23;;;;;;;;;;;;;;;;;;5047142;28;19987;-65
2022/11/25 11:29:49;;;;;;;;;;;;;;;;;;5047849;28;19925;-65
2022/11/25 11:32:15;;;;;;;;;;;;;;;;;;5048040;28;19983;-65
2022/11/25 11:34:41;;;;;;;;;;;;;;;;;;5047951;28;19972;-65
2022/11/25 11:37:07;;;;;;;;;;;;;;;;;;5048101;28;19971;-65
2022/11/25 11:39:34;;;;;;;;;;;;;;;;;;5047892;28;20425;-65
2022/11/25 11:42:00;;;;;;;;;;;;;;;;;;5048158;28;19920;-65
2022/11/25 11:44:26;;;;;;;;;;;;;;;;;;5047419;28;20002;-65
2022/11/25 11:46:52;;;;;;;;;;;;;;;;;;5048051;28;20035;-65
2022/11/25 11:49:17;;;;;;;;;;;;;;;;;;5048127;28;19928;-65
2022/11/25 11:51:43;;;;;;;;;;;;;;;;;;5048039;28;19987;-65
2022/11/25 11:54:09;;;;;;;;;;;;;;;;;;5047860;28;20323;-65
2022/11/25 11:56:35;;;;;;;;;;;;;;;;;;5046416;28;20367;-65
2022/11/25 11:59:01;;;;;;;;;;;;;;;;;;5047562;28;19928;-65
2022/11/25 12:01:27;;;;;;;;;;;;;;;;;;5046470;28;20331;-66
2022/11/25 12:03:53;;;;;;;;;;;;;;;;;;5047925;28;19967;-65
2022/11/25 12:06:19;;;;;;;;;;;;;;;;;;5047565;28;20023;-65
2022/11/25 12:08:45;;;;;;;;;;;;;;;;;;5046859;28;19931;-65
2022/11/25 12:11:11;;;;;;;;;;;;;;;;;;5046573;28;19958;-66
2022/11/25 12:13:37;;;;;;;;;;;;;;;;;;5046346;28;19921;-65
2022/11/25 12:16:05;;;;;;;;;;;;;;;;;;5046817;28;20540;-65
2022/11/25 12:18:31;;;;;;;;;;;;;;;;;;5051609;28;19979;-65
2022/11/25 12:20:57;;;;;;;;;;;;;;;;;;5050873;28;20049;-65
2022/11/25 12:23:23;;;;;;;;;;;;;;;;;;5051626;28;19983;-65
2022/11/25 12:25:50;;;;;;;;;;;;;;;;;;5050929;28;19975;-65
2022/11/25 12:28:16;;;;;;;;;;;;;;;;;;5051225;28;19928;-66
2022/11/25 12:30:42;;;;;;;;;;;;;;;;;;5051302;28;19920;-65
2022/11/25 12:33:08;;;;;;;;;;;;;;;;;;5049732;28;19920;-65
2022/11/25 12:35:34;;;;;;;;;;;;;;;;;;5051297;28;20387;-65
2022/11/25 12:38:00;;;;;;;;;;;;;;;;;;5050543;28;20299;-65
2022/11/25 12:40:26;;;;;;;;;;;;;;;;;;5051113;28;19987;-65
2022/11/25 12:42:53;;;;;;;;;;;;;;;;;;5050802;28;19921;-65
2022/11/25 12:45:19;;;;;;;;;;;;;;;;;;5050465;28;19970;-65
2022/11/25 12:47:45;;;;;;;;;;;;;;;;;;5051060;28;20348;-65
2022/11/25 12:50:11;;;;;;;;;;;;;;;;;;5049738;28;20302;-65
2022/11/25 12:52:37;;;;;;;;;;;;;;;;;;5050897;28;20280;-65
2022/11/25 12:55:03;;;;;;;;;;;;;;;;;;5049381;28;19924;-65
2022/11/25 12:57:29;;;;;;;;;;;;;;;;;;5050270;28;19921;-66
2022/11/25 12:59:54;;;;;;;;;;;;;;;;;;5050615;28;19927;-65
2022/11/25 13:02:20;;;;;;;;;;;;;;;;;;5050496;28;19928;-65
2022/11/25 13:04:46;;;;;;;;;;;;;;;;;;5049031;28;19920;-65
2022/11/25 13:07:12;;;;;;;;;;;;;;;;;;5050294;28;19920;-65
2022/11/25 13:09:38;;;;;;;;;;;;;;;;;;5050426;28;19967;-65
2022/11/25 13:12:04;;;;;;;;;;;;;;;;;;5050083;28;19924;-65
2022/11/25 13:14:30;;;;;;;;;;;;;;;;;;5049460;28;20021;-65
2022/11/25 13:16:56;;;;;;;;;;;;;;;;;;5050328;28;19920;-65
2022/11/25 13:19:22;;;;;;;;;;;;;;;;;;5050100;28;20410;-65
2022/11/25 13:21:48;;;;;;;;;;;;;;;;;;5050395;28;19925;-65
2022/11/25 13:24:14;;;;;;;;;;;;;;;;;;5049969;28;19988;-65
2022/11/25 13:26:40;;;;;;;;;;;;;;;;;;5048205;28;20017;-65
2022/11/25 13:29:06;;;;;;;;;;;;;;;;;;5048620;28;19921;-65
2022/11/25 13:31:32;;;;;;;;;;;;;;;;;;5049878;28;19920;-65
2022/11/25 13:33:58;;;;;;;;;;;;;;;;;;5049962;28;19978;-65
2022/11/25 13:36:24;;;;;;;;;;;;;;;;;;5049971;28;20413;-65
2022/11/25 13:38:50;;;;;;;;;;;;;;;;;;5048198;28;19952;-65
2022/11/25 13:41:16;;;;;;;;;;;;;;;;;;5049607;28;19963;-65
2022/11/25 13:43:42;;;;;;;;;;;;;;;;;;5049817;28;20328;-65
2022/11/25 13:46:08;;;;;;;;;;;;;;;;;;5049797;28;20002;-65
2022/11/25 13:48:35;;;;;;;;;;;;;;;;;;5049586;28;19979;-65
2022/11/25 13:51:01;;;;;;;;;;;;;;;;;;5049721;28;19921;-65
2022/11/25 13:53:27;;;;;;;;;;;;;;;;;;5048817;28;19991;-64
2022/11/25 13:55:54;;;;;;;;;;;;;;;;;;5049813;28;19995;-65
2022/11/25 13:58:20;;;;;;;;;;;;;;;;;;5049512;28;19920;-64
2022/11/25 14:00:46;;;;;;;;;;;;;;;;;;5049496;28;19927;-65
2022/11/25 14:03:12;;;;;;;;;;;;;;;;;;5048205;28;20409;-64
2022/11/25 14:05:38;;;;;;;;;;;;;;;;;;5048912;28;19966;-64
2022/11/25 14:08:06;;;;;;;;;;;;;;;;;;5049418;28;19924;-64
2022/11/25 14:10:32;;;;;;;;;;;;;;;;;;5049201;28;19920;-64
2022/11/25 14:12:58;;;;;;;;;;;;;;;;;;5049001;28;20017;-64
2022/11/25 14:15:24;;;;;;;;;;;;;;;;;;5049054;28;19968;-64
2022/11/25 14:17:50;;;;;;;;;;;;;;;;;;5049080;28;19927;-64
2022/11/25 14:20:16;;;;;;;;;;;;;;;;;;5048649;28;20369;-65
2022/11/25 14:22:42;;;;;;;;;;;;;;;;;;5049057;28;19968;-64
2022/11/25 14:25:08;;;;;;;;;;;;;;;;;;5048774;28;19925;-65
2022/11/25 14:27:34;;;;;;;;;;;;;;;;;;5048883;28;20416;-64
2022/11/25 14:30:00;;;;;;;;;;;;;;;;;;5048803;28;19971;-64
2022/11/25 14:32:26;;;;;;;;;;;;;;;;;;5048328;28;20278;-64
2022/11/25 14:34:52;;;;;;;;;;;;;;;;;;5048900;28;19967;-64
2022/11/25 14:37:18;;;;;;;;;;;;;;;;;;5048821;28;20360;-64
2022/11/25 14:39:44;;;;;;;;;;;;;;;;;;5048350;28;20335;-64
2022/11/25 14:42:10;;;;;;;;;;;;;;;;;;5048622;28;19921;-64
2022/11/25 14:44:36;;;;;;;;;;;;;;;;;;5046736;28;20363;-64
2022/11/25 14:47:02;;;;;;;;;;;;;;;;;;5047579;28;20005;-64
2022/11/25 14:49:28;;;;;;;;;;;;;;;;;;5048304;28;19920;-64
2022/11/25 14:51:53;;;;;;;;;;;;;;;;;;5047190;28;19925;-64
2022/11/25 14:54:20;;;;;;;;;;;;;;;;;;5047976;28;20426;-64
2022/11/25 14:56:46;;;;;;;;;;;;;;;;;;5048590;28;20050;-64
2022/11/25 14:59:12;;;;;;;;;;;;;;;;;;5048218;28;20457;-64
2022/11/25 15:01:38;;;;;;;;;;;;;;;;;;5048295;28;19920;-64
2022/11/25 15:04:04;;;;;;;;;;;;;;;;;;5048520;28;19925;-64
2022/11/25 15:06:30;;;;;;;;;;;;;;;;;;5046679;28;19925;-64
2022/11/25 15:08:56;;;;;;;;;;;;;;;;;;5048359;28;19959;-64
2022/11/25 15:11:22;;;;;;;;;;;;;;;;;;5046955;28;20338;-64
2022/11/25 15:13:48;;;;;;;;;;;;;;;;;;5048109;28;19964;-64
2022/11/25 15:16:14;;;;;;;;;;;;;;;;;;5048020;28;19986;-64
2022/11/25 15:18:39;;;;;;;;;;;;;;;;;;5048423;28;20244;-64
2022/11/25 15:21:05;;;;;;;;;;;;;;;;;;5048425;28;19960;-64
2022/11/25 15:23:33;;;;;;;;;;;;;;;;;;5048120;28;19926;-64
2022/11/25 15:26:00;;;;;;;;;;;;;;;;;;5046236;28;19921;-64
2022/11/25 15:28:26;;;;;;;;;;;;;;;;;;5048090;28;19920;-64
2022/11/25 15:30:51;;;;;;;;;;;;;;;;;;5048565;28;20390;-64
2022/11/25 15:33:17;;;;;;;;;;;;;;;;;;5048466;28;19927;-64
2022/11/25 15:35:43;;;;;;;;;;;;;;;;;;5048832;28;20447;-64
2022/11/25 15:38:09;;;;;;;;;;;;;;;;;;5048482;28;19921;-64
2022/11/25 15:40:35;;;;;;;;;;;;;;;;;;5048530;28;19964;-64
2022/11/25 15:43:01;;;;;;;;;;;;;;;;;;5047229;28;20656;-63
2022/11/25 15:45:27;;;;;;;;;;;;;;;;;;5047985;28;19927;-64
2022/11/25 15:47:53;;;;;;;;;;;;;;;;;;5048759;28;20254;-64
2022/11/25 15:50:20;;;;;;;;;;;;;;;;;;5049699;28;20041;-64
2022/11/25 15:52:46;;;;;;;;;;;;;;;;;;5052836;28;20394;-64
2022/11/25 15:55:11;;;;;;;;;;;;;;;;;;5052462;28;19927;-63
2022/11/25 15:57:37;;;;;;;;;;;;;;;;;;5052059;28;19972;-64
2022/11/25 16:00:04;;;;;;;;;;;;;;;;;;5051917;28;20098;-64
2022/11/25 16:02:30;;;;;;;;;;;;;;;;;;5050991;28;19921;-64
2022/11/25 16:04:56;;;;;;;;;;;;;;;;;;5052168;28;20010;-64
2022/11/25 16:07:22;;;;;;;;;;;;;;;;;;5051338;28;19976;-65
2022/11/25 16:09:48;;;;;;;;;;;;;;;;;;5050206;28;20543;-64
2022/11/25 16:12:14;;;;;;;;;;;;;;;;;;5051853;28;19972;-65
2022/11/25 16:14:40;;;;;;;;;;;;;;;;;;5052261;28;19982;-65
2022/11/25 16:17:06;;;;;;;;;;;;;;;;;;5050896;28;19920;-65
2022/11/25 16:19:32;;;;;;;;;;;;;;;;;;5034332;28;20392;-65
2022/11/25 16:21:58;;;;;;;;;;;;;;;;;;5051830;28;19996;-66
2022/11/25 16:24:24;;;;;;;;;;;;;;;;;;5051986;28;19920;-66
2022/11/25 16:26:50;;;;;;;;;;;;;;;;;;5052221;28;19921;-65
2022/11/25 16:29:16;;;;;;;;;;;;;;;;;;5052192;28;20563;-66
2022/11/25 16:31:42;;;;;;;;;;;;;;;;;;5051818;28;19927;-65
2022/11/25 16:34:08;;;;;;;;;;;;;;;;;;5051633;28;20369;-65
2022/11/25 16:36:34;;;;;;;;;;;;;;;;;;5052169;28;20001;-66
2022/11/25 16:39:00;;;;;;;;;;;;;;;;;;5051700;28;19921;-66
2022/11/25 16:41:26;;;;;;;;;;;;;;;;;;5051885;28;19972;-65
2022/11/25 16:43:52;;;;;;;;;;;;;;;;;;5051911;28;19978;-65
2022/11/25 16:46:18;;;;;;;;;;;;;;;;;;5051942;28;20038;-65
2022/11/25 16:48:44;;;;;;;;;;;;;;;;;;5051467;28;20387;-65